createdAt,value
2023-09-29T00:03:02.233Z,14.26
2023-09-29T00:06:05.312Z,14.20
2023-09-29T00:09:08.275Z,14.18
2023-09-29T00:12:11.198Z,14.11
2023-09-29T00:15:14.280Z,14.04
2023-09-29T00:18:17.340Z,14.01
2023-09-29T00:21:20.431Z,13.97
2023-09-29T00:24:23.522Z,13.90
2023-09-29T00:27:26.349Z,13.84
2023-09-29T00:30:29.516Z,13.79
2023-09-29T00:33:32.706Z,14.04
2023-09-29T00:36:35.905Z,14.28
2023-09-29T00:39:38.473Z,14.38
2023-09-29T00:42:43.374Z,14.35
2023-09-29T00:45:48.969Z,14.28
2023-09-29T00:48:53.904Z,14.21
2023-09-29T00:52:01.154Z,14.18
2023-09-29T00:55:06.812Z,14.09
2023-09-29T00:58:10.668Z,14.02
2023-09-29T01:01:14.522Z,13.99
2023-09-29T01:04:17.647Z,14.09
2023-09-29T01:07:21.668Z,14.15
2023-09-29T01:10:25.470Z,14.03
2023-09-29T01:13:28.613Z,13.88
2023-09-29T01:16:31.187Z,13.82
2023-09-29T01:19:34.912Z,13.72
2023-09-29T01:22:45.880Z,13.64
2023-09-29T01:25:48.913Z,13.59
2023-09-29T01:28:54.053Z,13.57
2023-09-29T01:31:57.022Z,13.55
2023-09-29T01:34:59.843Z,13.70
2023-09-29T01:38:03.485Z,13.61
2023-09-29T01:41:06.305Z,13.64
2023-09-29T01:44:09.312Z,13.52
2023-09-29T01:47:12.076Z,13.48
2023-09-29T01:50:16.583Z,13.47
2023-09-29T01:53:19.266Z,13.61
2023-09-29T01:56:22.829Z,13.58
2023-09-29T01:59:25.667Z,13.48
2023-09-29T02:02:30.010Z,13.46
2023-09-29T02:05:33.240Z,13.45
2023-09-29T02:08:36.510Z,13.37
2023-09-29T02:11:40.591Z,13.34
2023-09-29T02:14:43.544Z,13.27
2023-09-29T02:17:49.472Z,13.20
2023-09-29T02:20:52.565Z,13.32
2023-09-29T02:23:58.391Z,13.36
2023-09-29T02:27:01.161Z,13.36
2023-09-29T02:30:04.696Z,13.28
2023-09-29T02:33:08.124Z,13.25
2023-09-29T02:36:11.672Z,13.21
2023-09-29T02:39:14.218Z,13.22
2023-09-29T02:42:18.375Z,13.32
2023-09-29T02:45:21.036Z,13.32
2023-09-29T02:48:24.991Z,13.38
2023-09-29T02:51:27.629Z,13.22
2023-09-29T02:54:31.288Z,13.22
2023-09-29T02:57:34.880Z,13.26
2023-09-29T03:00:40.605Z,13.40
2023-09-29T03:03:45.357Z,13.40
2023-09-29T03:06:48.936Z,13.32
2023-09-29T03:09:52.029Z,13.31
2023-09-29T03:12:57.990Z,13.37
2023-09-29T03:16:02.745Z,13.34
2023-09-29T03:19:05.660Z,13.26
2023-09-29T03:22:08.960Z,13.23
2023-09-29T03:25:18.106Z,13.12
2023-09-29T03:28:21.145Z,13.23
2023-09-29T03:31:25.514Z,13.20
2023-09-29T03:34:28.022Z,13.13
2023-09-29T03:37:30.981Z,13.11
2023-09-29T03:40:33.792Z,13.11
2023-09-29T03:43:36.813Z,13.03
2023-09-29T03:46:40.308Z,13.01
2023-09-29T03:49:44.361Z,12.98
2023-09-29T03:52:49.928Z,13.00
2023-09-29T03:55:53.496Z,12.84
2023-09-29T03:58:57.310Z,12.84
2023-09-29T04:02:00.388Z,12.91
2023-09-29T04:05:03.685Z,12.89
2023-09-29T04:08:06.738Z,12.78
2023-09-29T04:11:10.161Z,12.81
2023-09-29T04:14:20.541Z,12.75
2023-09-29T04:17:38.674Z,12.85
2023-09-29T04:20:42.579Z,12.87
2023-09-29T04:23:45.837Z,12.84
2023-09-29T04:26:49.603Z,12.78
2023-09-29T04:29:53.476Z,12.79
2023-09-29T04:32:56.339Z,12.80
2023-09-29T04:35:59.487Z,12.78
2023-09-29T04:39:02.413Z,12.78
2023-09-29T04:42:06.184Z,12.73
2023-09-29T04:45:09.658Z,12.73
2023-09-29T04:48:12.983Z,12.67
2023-09-29T04:51:15.762Z,12.63
2023-09-29T04:54:19.332Z,12.62
2023-09-29T04:57:23.358Z,12.73
2023-09-29T05:00:27.920Z,12.84
2023-09-29T05:03:30.884Z,12.92
2023-09-29T05:06:34.077Z,13.00
2023-09-29T05:09:36.655Z,13.06
2023-09-29T05:12:39.733Z,13.08
2023-09-29T05:15:42.706Z,13.12
2023-09-29T05:18:46.377Z,13.24
2023-09-29T05:21:49.265Z,13.30
2023-09-29T05:24:54.861Z,13.32
2023-09-29T05:27:57.372Z,13.36
2023-09-29T05:31:01.094Z,13.41
2023-09-29T05:34:03.916Z,13.45
2023-09-29T05:37:06.970Z,13.47
2023-09-29T05:40:10.367Z,13.55
2023-09-29T05:43:14.898Z,13.61
2023-09-29T05:46:17.784Z,13.70
2023-09-29T05:49:20.981Z,13.77
2023-09-29T05:52:23.757Z,13.87
2023-09-29T05:55:27.361Z,13.97
2023-09-29T05:58:31.887Z,14.04
2023-09-29T06:01:34.729Z,14.14
2023-09-29T06:04:37.685Z,14.22
2023-09-29T06:07:41.214Z,14.29
2023-09-29T06:10:45.461Z,14.34
2023-09-29T06:13:48.164Z,14.41
2023-09-29T06:16:51.066Z,14.51
2023-09-29T06:19:53.861Z,14.53
2023-09-29T06:22:56.953Z,14.62
2023-09-29T06:26:01.142Z,14.72
2023-09-29T06:29:06.007Z,14.81
2023-09-29T06:32:12.031Z,14.95
2023-09-29T06:35:16.087Z,15.27
2023-09-29T06:38:19.035Z,15.45
2023-09-29T06:41:21.901Z,15.49
2023-09-29T06:44:25.023Z,15.54
2023-09-29T06:47:28.226Z,15.62
2023-09-29T06:50:30.749Z,15.67
2023-09-29T06:53:33.886Z,15.77
2023-09-29T06:56:37.360Z,15.85
2023-09-29T06:59:40.614Z,15.97
2023-09-29T07:02:44.112Z,16.13
2023-09-29T07:05:47.756Z,16.25
2023-09-29T07:08:51.024Z,16.43
2023-09-29T07:11:54.044Z,16.65
2023-09-29T07:14:56.860Z,16.93
2023-09-29T07:18:00.181Z,17.25
2023-09-29T07:21:02.934Z,17.84
2023-09-29T07:24:08.746Z,18.48
2023-09-29T07:27:13.156Z,19.93
2023-09-29T07:30:16.686Z,21.71
2023-09-29T07:33:19.700Z,21.83
2023-09-29T07:36:22.924Z,21.93
2023-09-29T07:39:25.594Z,22.83
2023-09-29T07:42:28.447Z,24.11
2023-09-29T07:45:31.058Z,25.03
2023-09-29T07:48:34.027Z,26.42
2023-09-29T07:51:39.497Z,26.33
2023-09-29T07:54:42.581Z,25.46
2023-09-29T07:57:45.812Z,26.10
2023-09-29T08:00:49.732Z,27.06
2023-09-29T08:03:53.292Z,26.22
2023-09-29T08:06:56.645Z,27.05
2023-09-29T08:09:59.842Z,27.33
2023-09-29T08:13:02.405Z,25.99
2023-09-29T08:16:05.572Z,25.60
2023-09-29T08:19:08.647Z,26.10
2023-09-29T08:22:12.082Z,27.02
2023-09-29T08:25:15.737Z,28.85
2023-09-29T08:28:18.909Z,30.50
2023-09-29T08:31:21.974Z,27.53
2023-09-29T08:34:31.438Z,29.55
2023-09-29T08:37:34.342Z,30.68
2023-09-29T08:40:41.919Z,29.66
2023-09-29T08:43:55.816Z,25.05
2023-09-29T08:47:03.300Z,23.17
2023-09-29T08:50:07.634Z,22.34
2023-09-29T08:53:12.051Z,22.58
2023-09-29T08:56:17.504Z,22.49
2023-09-29T08:59:20.398Z,22.07
2023-09-29T09:02:26.394Z,21.95
2023-09-29T09:05:29.520Z,21.94
2023-09-29T09:08:32.811Z,21.78
2023-09-29T09:11:44.053Z,21.70
2023-09-29T09:14:47.140Z,21.42
2023-09-29T09:17:50.494Z,21.12
2023-09-29T09:20:53.876Z,21.21
2023-09-29T09:23:58.762Z,21.27
2023-09-29T09:27:04.527Z,21.24
2023-09-29T09:30:22.233Z,21.28
2023-09-29T09:33:26.826Z,21.37
2023-09-29T09:36:30.044Z,21.56
2023-09-29T09:39:34.808Z,21.42
2023-09-29T09:42:37.761Z,21.45
2023-09-29T09:45:43.961Z,21.39
2023-09-29T09:49:14.990Z,21.57
2023-09-29T09:52:25.371Z,21.52
2023-09-29T09:55:41.393Z,21.52
2023-09-29T09:58:44.692Z,21.72
2023-09-29T10:01:50.447Z,21.85
2023-09-29T10:04:55.520Z,21.86
2023-09-29T10:08:08.565Z,22.00
2023-09-29T10:11:12.726Z,22.19
2023-09-29T10:14:15.642Z,22.05
2023-09-29T10:17:19.035Z,22.34
2023-09-29T10:20:27.842Z,22.48
2023-09-29T10:23:31.478Z,22.65
2023-09-29T10:26:49.860Z,22.59
2023-09-29T10:30:12.487Z,22.70
2023-09-29T10:33:15.228Z,22.81
2023-09-29T10:36:19.681Z,22.85
2023-09-29T10:39:30.312Z,23.10
2023-09-29T10:42:39.441Z,23.24
2023-09-29T10:45:42.275Z,23.32
2023-09-29T10:48:49.949Z,23.47
2023-09-29T10:51:53.925Z,24.62
2023-09-29T10:55:00.077Z,28.88
2023-09-29T10:58:04.667Z,33.24
2023-09-29T11:01:07.821Z,36.89
2023-09-29T11:04:12.015Z,38.81
2023-09-29T11:07:18.331Z,39.94
2023-09-29T11:10:21.775Z,40.29
2023-09-29T11:13:25.855Z,37.25
2023-09-29T11:16:33.104Z,39.52
2023-09-29T11:19:37.175Z,39.39
2023-09-29T11:22:39.950Z,42.90
2023-09-29T11:25:59.275Z,42.81
2023-09-29T11:29:02.118Z,45.58
2023-09-29T11:32:05.739Z,45.72
2023-09-29T11:35:14.919Z,41.90
2023-09-29T11:38:21.472Z,42.18
2023-09-29T11:41:24.538Z,39.93
2023-09-29T11:44:30.213Z,42.18
2023-09-29T11:47:33.261Z,41.73
2023-09-29T11:50:36.406Z,42.88
2023-09-29T11:53:43.701Z,44.43
2023-09-29T11:56:46.931Z,43.19
2023-09-29T11:59:49.994Z,43.08
2023-09-29T12:02:54.883Z,39.31
2023-09-29T12:06:00.022Z,42.00
2023-09-29T12:09:04.550Z,39.63
2023-09-29T12:12:07.525Z,41.70
2023-09-29T12:15:13.167Z,39.32
2023-09-29T12:18:17.754Z,41.28
2023-09-29T12:21:20.776Z,41.05
2023-09-29T12:24:24.766Z,39.95
2023-09-29T12:27:27.832Z,41.52
2023-09-29T12:30:31.894Z,43.61
2023-09-29T12:33:34.825Z,44.28
2023-09-29T12:36:37.750Z,44.14
2023-09-29T12:39:40.771Z,40.51
2023-09-29T12:42:51.653Z,39.65
2023-09-29T12:45:55.496Z,40.43
2023-09-29T12:48:59.486Z,42.04
2023-09-29T12:52:03.591Z,42.76
2023-09-29T12:55:08.260Z,39.09
2023-09-29T12:58:10.891Z,39.13
2023-09-29T13:01:13.985Z,38.45
2023-09-29T13:04:17.040Z,34.15
2023-09-29T13:07:20.624Z,32.56
2023-09-29T13:10:23.662Z,30.31
2023-09-29T13:13:27.305Z,28.86
2023-09-29T13:16:30.027Z,28.77
2023-09-29T13:19:33.193Z,28.33
2023-09-29T13:22:35.816Z,27.54
2023-09-29T13:25:39.338Z,28.21
2023-09-29T13:28:42.150Z,27.65
2023-09-29T13:31:45.371Z,27.71
2023-09-29T13:34:48.216Z,27.54
2023-09-29T13:37:51.261Z,27.48
2023-09-29T13:40:54.438Z,27.46
2023-09-29T13:43:58.047Z,27.59
2023-09-29T13:47:04.402Z,27.71
2023-09-29T13:50:12.491Z,27.01
2023-09-29T13:53:15.927Z,26.99
2023-09-29T13:56:20.277Z,27.18
2023-09-29T13:59:22.856Z,27.73
2023-09-29T14:02:26.365Z,27.27
2023-09-29T14:05:29.697Z,26.74
2023-09-29T14:08:33.224Z,26.35
2023-09-29T14:11:36.366Z,26.09
2023-09-29T14:14:41.380Z,26.01
2023-09-29T14:17:46.191Z,25.96
2023-09-29T14:20:49.156Z,25.76
2023-09-29T14:23:52.282Z,25.67
2023-09-29T14:26:54.960Z,25.41
2023-09-29T14:29:57.959Z,25.25
2023-09-29T14:33:03.907Z,25.00
2023-09-29T14:36:08.332Z,24.96
2023-09-29T14:39:11.016Z,24.90
2023-09-29T14:42:16.342Z,24.86
2023-09-29T14:45:19.201Z,24.73
2023-09-29T14:48:22.481Z,24.63
2023-09-29T14:51:25.373Z,24.55
2023-09-29T14:54:28.685Z,24.37
2023-09-29T14:57:37.089Z,24.20
2023-09-29T15:00:43.578Z,24.04
2023-09-29T15:03:47.026Z,23.90
2023-09-29T15:06:52.687Z,23.76
2023-09-29T15:09:55.844Z,23.60
2023-09-29T15:13:00.892Z,23.53
2023-09-29T15:16:05.719Z,23.38
2023-09-29T15:19:15.438Z,23.26
2023-09-29T15:22:21.096Z,23.14
2023-09-29T15:25:24.248Z,22.96
2023-09-29T15:28:26.826Z,22.91
2023-09-29T15:31:30.506Z,22.68
2023-09-29T15:34:35.793Z,22.64
2023-09-29T15:37:39.556Z,22.54
2023-09-29T15:40:43.046Z,22.43
2023-09-29T15:43:45.936Z,22.33
2023-09-29T15:46:48.784Z,22.19
2023-09-29T15:49:51.755Z,22.01
2023-09-29T15:52:54.659Z,21.92
2023-09-29T15:55:58.271Z,21.79
2023-09-29T15:59:01.206Z,21.66
2023-09-29T16:02:19.687Z,21.56
2023-09-29T16:05:28.894Z,21.45
2023-09-29T16:08:34.235Z,21.35
2023-09-29T16:11:37.230Z,21.18
2023-09-29T16:14:40.053Z,21.06
2023-09-29T16:17:44.873Z,20.91
2023-09-29T16:20:47.639Z,20.78
2023-09-29T16:23:50.544Z,20.61
2023-09-29T16:26:53.531Z,20.48
2023-09-29T16:29:56.714Z,20.34
2023-09-29T16:33:01.308Z,20.20
2023-09-29T16:36:05.119Z,20.05
2023-09-29T16:39:07.909Z,19.94
2023-09-29T16:42:11.330Z,19.79
2023-09-29T16:45:17.021Z,19.68
2023-09-29T16:48:20.484Z,19.57
2023-09-29T16:51:26.693Z,19.42
2023-09-29T16:54:31.223Z,19.31
2023-09-29T16:57:36.453Z,19.20
2023-09-29T17:00:39.525Z,19.11
2023-09-29T17:03:45.050Z,19.01
2023-09-29T17:06:48.206Z,18.90
2023-09-29T17:09:52.492Z,18.79
2023-09-29T17:12:55.347Z,18.71
2023-09-29T17:16:04.862Z,18.67
2023-09-29T17:19:08.569Z,18.56
2023-09-29T17:22:11.465Z,18.47
2023-09-29T17:25:14.610Z,18.36
2023-09-29T17:28:17.926Z,18.29
2023-09-29T17:31:21.989Z,18.20
2023-09-29T17:34:24.838Z,18.14
2023-09-29T17:37:28.508Z,18.03
2023-09-29T17:40:31.040Z,17.96
2023-09-29T17:43:33.972Z,17.88
2023-09-29T17:46:40.191Z,17.81
2023-09-29T17:49:43.649Z,17.76
2023-09-29T17:52:46.610Z,17.68
2023-09-29T17:55:50.268Z,17.63
2023-09-29T17:58:52.816Z,17.68
2023-09-29T18:01:55.782Z,17.70
2023-09-29T18:04:59.983Z,17.71
2023-09-29T18:08:03.540Z,17.74
2023-09-29T18:11:06.577Z,17.74
2023-09-29T18:14:10.540Z,17.79
2023-09-29T18:17:13.692Z,17.75
2023-09-29T18:20:18.469Z,17.66
2023-09-29T18:23:21.957Z,17.62
2023-09-29T18:26:24.937Z,17.59
2023-09-29T18:29:28.155Z,17.56
2023-09-29T18:32:31.083Z,17.53
2023-09-29T18:35:35.317Z,17.47
2023-09-29T18:38:38.488Z,17.39
2023-09-29T18:41:42.022Z,17.32
2023-09-29T18:44:45.190Z,17.28
2023-09-29T18:47:48.783Z,17.23
2023-09-29T18:50:51.867Z,17.18
2023-09-29T18:53:55.085Z,17.14
2023-09-29T18:56:57.945Z,17.12
2023-09-29T19:00:02.281Z,17.19
2023-09-29T19:03:05.613Z,17.25
2023-09-29T19:06:09.062Z,17.36
2023-09-29T19:09:13.311Z,17.28
2023-09-29T19:12:16.664Z,17.20
2023-09-29T19:15:21.535Z,17.22
2023-09-29T19:18:25.418Z,17.14
2023-09-29T19:21:28.996Z,17.21
2023-09-29T19:24:33.646Z,17.32
2023-09-29T19:27:36.972Z,17.20
2023-09-29T19:30:40.258Z,17.00
2023-09-29T19:33:45.344Z,16.87
2023-09-29T19:36:48.927Z,16.72
2023-09-29T19:39:52.077Z,16.68
2023-09-29T19:42:55.585Z,16.53
2023-09-29T19:45:58.963Z,16.44
2023-09-29T19:49:02.508Z,16.43
2023-09-29T19:52:06.083Z,16.37
2023-09-29T19:55:10.767Z,16.28
2023-09-29T19:58:14.252Z,16.24
2023-09-29T20:01:18.423Z,16.19
2023-09-29T20:04:22.576Z,16.12
2023-09-29T20:07:25.842Z,16.04
2023-09-29T20:10:29.035Z,15.99
2023-09-29T20:13:32.305Z,15.94
2023-09-29T20:16:35.522Z,15.85
2023-09-29T20:19:38.471Z,15.78
2023-09-29T20:22:41.695Z,15.73
2023-09-29T20:25:44.643Z,15.72
2023-09-29T20:28:47.800Z,15.68
2023-09-29T20:31:50.462Z,15.67
2023-09-29T20:34:56.028Z,15.93
2023-09-29T20:37:58.972Z,16.06
2023-09-29T20:41:02.107Z,16.12
2023-09-29T20:44:04.828Z,16.20
2023-09-29T20:47:08.151Z,16.21
2023-09-29T20:50:11.548Z,16.25
2023-09-29T20:53:14.859Z,16.19
2023-09-29T20:56:19.248Z,16.21
2023-09-29T20:59:22.303Z,15.99
2023-09-29T21:02:24.881Z,15.98
2023-09-29T21:05:28.098Z,15.92
2023-09-29T21:08:30.849Z,15.80
2023-09-29T21:11:33.664Z,15.67
2023-09-29T21:14:36.502Z,15.53
2023-09-29T21:17:39.624Z,15.45
2023-09-29T21:20:42.385Z,15.37
2023-09-29T21:23:45.778Z,15.30
2023-09-29T21:26:48.551Z,15.31
2023-09-29T21:29:51.422Z,15.35
2023-09-29T21:32:54.058Z,15.52
2023-09-29T21:35:56.946Z,15.56
2023-09-29T21:39:00.126Z,15.36
2023-09-29T21:42:04.124Z,15.30
2023-09-29T21:45:07.402Z,15.14
2023-09-29T21:48:10.681Z,15.04
2023-09-29T21:51:13.241Z,15.02
2023-09-29T21:54:16.522Z,14.92
2023-09-29T21:57:19.788Z,14.84
2023-09-29T22:00:23.128Z,14.83
2023-09-29T22:03:26.925Z,14.78
2023-09-29T22:06:31.260Z,14.72
2023-09-29T22:09:34.884Z,14.66
2023-09-29T22:12:37.691Z,14.60
2023-09-29T22:15:40.974Z,14.52
2023-09-29T22:18:43.718Z,14.47
2023-09-29T22:21:46.554Z,14.39
2023-09-29T22:24:51.185Z,14.37
2023-09-29T22:27:54.009Z,14.36
2023-09-29T22:30:56.917Z,14.32
2023-09-29T22:34:00.272Z,14.29
2023-09-29T22:37:03.099Z,14.27
2023-09-29T22:40:08.334Z,14.23
2023-09-29T22:43:12.538Z,14.19
2023-09-29T22:46:15.971Z,14.14
2023-09-29T22:49:20.630Z,14.18
2023-09-29T22:52:25.313Z,14.18
2023-09-29T22:55:28.159Z,14.15
2023-09-29T22:58:32.937Z,14.07
2023-09-29T23:01:35.856Z,14.03
2023-09-29T23:04:39.041Z,14.00
2023-09-29T23:07:42.116Z,13.97
2023-09-29T23:10:46.065Z,13.95
2023-09-29T23:13:49.915Z,13.93
2023-09-29T23:16:54.109Z,13.86
2023-09-29T23:19:56.980Z,13.80
2023-09-29T23:23:02.678Z,13.78
2023-09-29T23:26:05.407Z,13.74
2023-09-29T23:29:08.557Z,13.79
2023-09-29T23:32:11.527Z,13.80
2023-09-29T23:35:14.644Z,13.72
2023-09-29T23:38:17.177Z,13.64
2023-09-29T23:41:20.307Z,13.61
2023-09-29T23:44:30.684Z,13.59
2023-09-29T23:47:34.648Z,13.55
2023-09-29T23:50:37.478Z,13.53
2023-09-29T23:53:40.495Z,13.51
2023-09-29T23:56:43.858Z,13.49
2023-09-29T23:59:47.128Z,13.48
